Airfield :
LOGIN :

Register | Disclaimer

   EN    FR    IT 

 










Legend :    VFR   Marginal VFR   IFR   Intensive IFR   Very Intensive IFR
Visi :
Ceiling :
>= 8 km
>= 3000ft
5 to 8 km
1000 to 3000 ft
1500m to 5 km
500 to 1000 ft
800 to 1500m
200 to 500 ft
< 800m
< 200 ft
Symbols :   Thunderstorms  Fog  Heavy snow  Heavy precipitations  Wind > 20 kt
SIGMETs :     Misc.  Thunderstorms  Icing  Turbulence  Mountain Waves  Volcanic Ashes






- Airport Elevation : 181 ft


ESIB - Satenas AB

CURRENT METAR :
  • 131150Z 16007KT 9999 FEW011 BKN056 06/05 Q1000

EXPIRED METARs :
  • 131120Z 16003KT 120V190 9999 FEW010 BKN062 05/05 Q1000
  • 131050Z 14006KT 9999 FEW010 BKN060 05/04 Q1001
  • 131020Z 16007KT 9999 SCT010 BKN200 05/04 Q1001
  • 130950Z 15004KT 9999 BKN010 04/04 Q1001
  • 130920Z 14006KT 9999 FEW033 BKN060 03/03 Q1001

TAF TAF ESIB
Valid from the 13 at 12:00 until the 13 at 16:00 UTC


131100Z 1312/1316 14009KT 9999 BKN030
PROB30 1312/1316 BKN009 RMK MIL



MET'MAP, your aeronautical weather chart ! - Copyright ORBIFLY December 2007 - Disclaimer

ORBIFLY MET'MAP TEAM :

Programming & Development : Alexandra Zaïnal
Concept & Development : Baudouin d'Aumeries
Co-Development & Prog : Marc-Olivier Méhu
Technical & hardware support : Manuel Goepfert

Contact : metmap@orbifly.com




SOURCES & CREDITS :

   NOAA